PWSweather.com
Personal Weather Stations
Station Observations
BNUMANCIA
BarcelonaES 08029

BarcelonaES 08029

Lat: 41.3855863, Lon: 2.1367624

Elevation: 46

Station Type: WMR180

High Low Average
Temperature 79.9°F26.6°F 65.7°F18.7°F 69.7°F20.9°F
Dew Point 63.9°F17.7°F 43.5°F6.4°F 51.1°F10.6°F
Winds 14.9 mph NNE24.0 mph NNE Calm Calm 3.0 mph 4.8 mph
Wind Gusts 16.6 mph26.7 mph -- 4.6 mph7.4 mph
Humidity 83% 29% 53%
Pressure 30.21 in1023.00 in 30.09 in1019.00 in -
Precipitation 0.00 in0.00 in - -
Hour Temp Dew Point Humidity Winds Wind Gusts Pressure Precip Precip Rate Daily Precip Total
12:04 AM 69.6°F20.9°C 63.9°F17.7°C 82% 3.9 mph NW6.3 kmh NW 4.3 mph6.9 kmh 30.09 in1019.0 mb 0.00 in0.0 mm 0.00 in/hr0.0 mm/hr 0.00 in0.0 mm
12:09 AM 69.6°F20.9°C 63.9°F17.7°C 82% 8.6 mph NNE13.8 kmh NNE 9.4 mph15.1 kmh 30.09 in1019.0 mb 0.00 in0.0 mm 0.00 in/hr0.0 mm/hr 0.00 in0.0 mm
12:14 AM 69.6°F20.9°C 63.9°F17.7°C 82% 8.2 mph NNE13.2 kmh NNE 8.9 mph14.3 kmh 30.09 in1019.0 mb 0.00 in0.0 mm 0.00 in/hr0.0 mm/hr 0.00 in0.0 mm
12:19 AM 69.4°F20.8°C 63.4°F17.4°C 81% Calm Calm -- 30.09 in1019.0 mb 0.00 in0.0 mm 0.00 in/hr0.0 mm/hr 0.00 in0.0 mm
12:24 AM 69.6°F20.9°C 63.5°F17.5°C 81% 2.3 mph NE3.7 kmh NE 7.2 mph11.6 kmh 30.09 in1019.0 mb 0.00 in0.0 mm 0.00 in/hr0.0 mm/hr 0.00 in0.0 mm
12:29 AM 69.6°F20.9°C 63.5°F17.5°C 81% 6.7 mph NNE10.8 kmh NNE 7.2 mph11.6 kmh 30.09 in1019.0 mb 0.00 in0.0 mm 0.00 in/hr0.0 mm/hr 0.00 in0.0 mm
12:35 AM 69.6°F20.9°C 63.5°F17.5°C 81% Calm Calm 3.0 mph4.8 kmh 30.09 in1019.0 mb 0.00 in0.0 mm 0.00 in/hr0.0 mm/hr 0.00 in0.0 mm
12:40 AM 69.6°F20.9°C 63.5°F17.5°C 81% 3.5 mph NNE5.6 kmh NNE 3.8 mph6.1 kmh 30.09 in1019.0 mb 0.00 in0.0 mm 0.00 in/hr0.0 mm/hr 0.00 in0.0 mm
12:45 AM 69.6°F20.9°C 63.5°F17.5°C 81% Calm Calm -- 30.09 in1019.0 mb 0.00 in0.0 mm 0.00 in/hr0.0 mm/hr 0.00 in0.0 mm
12:50 AM 69.6°F20.9°C 63.5°F17.5°C 81% 1.6 mph 2.6 kmh 1.7 mph2.7 kmh 30.09 in1019.0 mb 0.00 in0.0 mm 0.00 in/hr0.0 mm/hr 0.00 in0.0 mm
12:54 AM 69.6°F20.9°C 63.5°F17.5°C 81% Calm Calm -- 30.12 in1020.0 mb 0.00 in0.0 mm 0.00 in/hr0.0 mm/hr 0.00 in0.0 mm
12:59 AM 69.6°F20.9°C 63.5°F17.5°C 81% Calm Calm -- 30.12 in1020.0 mb 0.00 in0.0 mm 0.00 in/hr0.0 mm/hr 0.00 in0.0 mm
01:04 AM 69.6°F20.9°C 63.5°F17.5°C 81% Calm Calm -- 30.12 in1020.0 mb 0.00 in0.0 mm 0.00 in/hr0.0 mm/hr 0.00 in0.0 mm
01:09 AM 69.8°F21.0°C 63.4°F17.4°C 80% 4.7 mph NE7.6 kmh NE 5.1 mph8.2 kmh 30.09 in1019.0 mb 0.00 in0.0 mm 0.00 in/hr0.0 mm/hr 0.00 in0.0 mm
01:14 AM 69.8°F21.0°C 63.4°F17.4°C 80% 3.9 mph NE6.3 kmh NE 4.3 mph6.9 kmh 30.09 in1019.0 mb 0.00 in0.0 mm 0.00 in/hr0.0 mm/hr 0.00 in0.0 mm
01:19 AM 69.8°F21.0°C 63.4°F17.4°C 80% Calm Calm 3.0 mph4.8 kmh 30.09 in1019.0 mb 0.00 in0.0 mm 0.00 in/hr0.0 mm/hr 0.00 in0.0 mm
01:24 AM 69.8°F21.0°C 63.4°F17.4°C 80% Calm Calm -- 30.12 in1020.0 mb 0.00 in0.0 mm 0.00 in/hr0.0 mm/hr 0.00 in0.0 mm
01:29 AM 69.8°F21.0°C 63.4°F17.4°C 80% Calm Calm -- 30.12 in1020.0 mb 0.00 in0.0 mm 0.00 in/hr0.0 mm/hr 0.00 in0.0 mm
01:35 AM 69.8°F21.0°C 63.4°F17.4°C 80% Calm Calm -- 30.12 in1020.0 mb 0.00 in0.0 mm 0.00 in/hr0.0 mm/hr 0.00 in0.0 mm
01:40 AM 69.6°F20.9°C 63.2°F17.3°C 80% Calm Calm -- 30.09 in1019.0 mb 0.00 in0.0 mm 0.00 in/hr0.0 mm/hr 0.00 in0.0 mm
01:45 AM 69.4°F20.8°C 63.0°F17.2°C 80% 3.9 mph NE6.3 kmh NE 4.3 mph6.9 kmh 30.09 in1019.0 mb 0.00 in0.0 mm 0.00 in/hr0.0 mm/hr 0.00 in0.0 mm
01:50 AM 69.6°F20.9°C 63.5°F17.5°C 81% 2.3 mph NE3.7 kmh NE 2.6 mph4.2 kmh 30.09 in1019.0 mb 0.00 in0.0 mm 0.00 in/hr0.0 mm/hr 0.00 in0.0 mm
01:55 AM 69.4°F20.8°C 63.4°F17.4°C 81% 2.7 mph NE4.3 kmh NE 3.0 mph4.8 kmh 30.12 in1020.0 mb 0.00 in0.0 mm 0.00 in/hr0.0 mm/hr 0.00 in0.0 mm
01:59 AM 69.4°F20.8°C 63.4°F17.4°C 81% 3.5 mph NE5.6 kmh NE 5.5 mph8.9 kmh 30.12 in1020.0 mb 0.00 in0.0 mm 0.00 in/hr0.0 mm/hr 0.00 in0.0 mm
02:03 AM 69.6°F20.9°C 63.5°F17.5°C 81% 3.5 mph NE5.6 kmh NE 4.7 mph7.6 kmh 30.12 in1020.0 mb 0.00 in0.0 mm 0.00 in/hr0.0 mm/hr 0.00 in0.0 mm
02:09 AM 69.6°F20.9°C 63.5°F17.5°C 81% 3.5 mph 5.6 kmh 3.8 mph6.1 kmh 30.12 in1020.0 mb 0.00 in0.0 mm 0.00 in/hr0.0 mm/hr 0.00 in0.0 mm
02:14 AM 69.6°F20.9°C 63.5°F17.5°C 81% 3.9 mph 6.3 kmh 4.7 mph7.6 kmh 30.12 in1020.0 mb 0.00 in0.0 mm 0.00 in/hr0.0 mm/hr 0.00 in0.0 mm
02:19 AM 69.4°F20.8°C 63.4°F17.4°C 81% Calm Calm -- 30.12 in1020.0 mb 0.00 in0.0 mm 0.00 in/hr0.0 mm/hr 0.00 in0.0 mm
02:24 AM 69.4°F20.8°C 63.4°F17.4°C 81% 4.7 mph NNE7.6 kmh NNE 5.1 mph8.2 kmh 30.12 in1020.0 mb 0.00 in0.0 mm 0.00 in/hr0.0 mm/hr 0.00 in0.0 mm
02:29 AM 69.4°F20.8°C 63.4°F17.4°C 81% 2.7 mph NNE4.3 kmh NNE 4.3 mph6.9 kmh 30.12 in1020.0 mb 0.00 in0.0 mm 0.00 in/hr0.0 mm/hr 0.00 in0.0 mm
02:35 AM 69.4°F20.8°C 63.4°F17.4°C 81% Calm Calm -- 30.12 in1020.0 mb 0.00 in0.0 mm 0.00 in/hr0.0 mm/hr 0.00 in0.0 mm
02:40 AM 69.3°F20.7°C 63.2°F17.3°C 81% Calm Calm -- 30.09 in1019.0 mb 0.00 in0.0 mm 0.00 in/hr0.0 mm/hr 0.00 in0.0 mm
02:45 AM 69.3°F20.7°C 63.5°F17.5°C 82% 4.3 mph NNE6.9 kmh NNE 5.1 mph8.2 kmh 30.09 in1019.0 mb 0.00 in0.0 mm 0.00 in/hr0.0 mm/hr 0.00 in0.0 mm
02:50 AM 69.3°F20.7°C 63.5°F17.5°C 82% Calm Calm 6.0 mph9.7 kmh 30.09 in1019.0 mb 0.00 in0.0 mm 0.00 in/hr0.0 mm/hr 0.00 in0.0 mm
02:55 AM 69.3°F20.7°C 63.5°F17.5°C 82% Calm Calm -- 30.09 in1019.0 mb 0.00 in0.0 mm 0.00 in/hr0.0 mm/hr 0.00 in0.0 mm
03:00 AM 69.3°F20.7°C 63.5°F17.5°C 82% Calm Calm -- 30.09 in1019.0 mb 0.00 in0.0 mm 0.00 in/hr0.0 mm/hr 0.00 in0.0 mm
03:04 AM 69.1°F20.6°C 63.4°F17.4°C 82% 3.5 mph NE5.6 kmh NE 7.2 mph11.6 kmh 30.09 in1019.0 mb 0.00 in0.0 mm 0.00 in/hr0.0 mm/hr 0.00 in0.0 mm
03:09 AM 69.3°F20.7°C 63.9°F17.7°C 83% Calm Calm -- 30.09 in1019.0 mb 0.00 in0.0 mm 0.00 in/hr0.0 mm/hr 0.00 in0.0 mm
03:14 AM 69.1°F20.6°C 63.7°F17.6°C 83% Calm Calm 4.3 mph6.9 kmh 30.09 in1019.0 mb 0.00 in0.0 mm 0.00 in/hr0.0 mm/hr 0.00 in0.0 mm
03:19 AM 69.1°F20.6°C 63.0°F17.2°C 81% 2.3 mph NE3.7 kmh NE 2.6 mph4.2 kmh 30.09 in1019.0 mb 0.00 in0.0 mm 0.00 in/hr0.0 mm/hr 0.00 in0.0 mm
03:24 AM 68.9°F20.5°C 59.1°F15.1°C 71% 6.3 mph NNE10.1 kmh NNE 6.8 mph10.9 kmh 30.09 in1019.0 mb 0.00 in0.0 mm 0.00 in/hr0.0 mm/hr 0.00 in0.0 mm
03:29 AM 69.1°F20.6°C 57.7°F14.3°C 67% 3.5 mph NE5.6 kmh NE 3.8 mph6.1 kmh 30.09 in1019.0 mb 0.00 in0.0 mm 0.00 in/hr0.0 mm/hr 0.00 in0.0 mm
03:35 AM 69.1°F20.6°C 56.0°F13.3°C 63% 5.5 mph NNE8.9 kmh NNE 6.0 mph9.7 kmh 30.09 in1019.0 mb 0.00 in0.0 mm 0.00 in/hr0.0 mm/hr 0.00 in0.0 mm
03:40 AM 69.1°F20.6°C 55.1°F12.8°C 61% Calm Calm -- 30.09 in1019.0 mb 0.00 in0.0 mm 0.00 in/hr0.0 mm/hr 0.00 in0.0 mm
03:45 AM 68.9°F20.5°C 53.5°F11.9°C 58% 3.5 mph NE5.6 kmh NE 4.7 mph7.6 kmh 30.09 in1019.0 mb 0.00 in0.0 mm 0.00 in/hr0.0 mm/hr 0.00 in0.0 mm
03:49 AM 68.9°F20.5°C 53.1°F11.7°C 57% Calm Calm -- 30.09 in1019.0 mb 0.00 in0.0 mm 0.00 in/hr0.0 mm/hr 0.00 in0.0 mm
03:55 AM 68.7°F20.4°C 53.4°F11.9°C 58% Calm Calm 2.1 mph3.4 kmh 30.09 in1019.0 mb 0.00 in0.0 mm 0.00 in/hr0.0 mm/hr 0.00 in0.0 mm
03:59 AM 68.5°F20.3°C 52.2°F11.2°C 56% Calm Calm 6.8 mph10.9 kmh 30.09 in1019.0 mb 0.00 in0.0 mm 0.00 in/hr0.0 mm/hr 0.00 in0.0 mm
04:04 AM 68.4°F20.2°C 51.6°F10.9°C 55% 2.3 mph ENE3.7 kmh ENE 4.7 mph7.6 kmh 30.09 in1019.0 mb 0.00 in0.0 mm 0.00 in/hr0.0 mm/hr 0.00 in0.0 mm
04:09 AM 68.2°F20.1°C 50.9°F10.5°C 54% 3.5 mph NE5.6 kmh NE 5.1 mph8.2 kmh 30.09 in1019.0 mb 0.00 in0.0 mm 0.00 in/hr0.0 mm/hr 0.00 in0.0 mm
04:14 AM 68.4°F20.2°C 50.1°F10.1°C 52% 2.0 mph SE3.2 kmh SE 6.0 mph9.7 kmh 30.09 in1019.0 mb 0.00 in0.0 mm 0.00 in/hr0.0 mm/hr 0.00 in0.0 mm
04:19 AM 68.2°F20.1°C 49.4°F9.7°C 51% 5.1 mph NE8.2 kmh NE 5.5 mph8.9 kmh 30.09 in1019.0 mb 0.00 in0.0 mm 0.00 in/hr0.0 mm/hr 0.00 in0.0 mm
04:24 AM 68.2°F20.1°C 48.9°F9.4°C 50% 2.0 mph NE3.2 kmh NE 8.1 mph13.0 kmh 30.09 in1019.0 mb 0.00 in0.0 mm 0.00 in/hr0.0 mm/hr 0.00 in0.0 mm
04:29 AM 68.2°F20.1°C 48.9°F9.4°C 50% 5.1 mph WNW8.2 kmh WNW 7.2 mph11.6 kmh 30.09 in1019.0 mb 0.00 in0.0 mm 0.00 in/hr0.0 mm/hr 0.00 in0.0 mm
04:33 AM 68.2°F20.1°C 48.3°F9.1°C 49% 2.3 mph NE3.7 kmh NE 2.6 mph4.2 kmh 30.09 in1019.0 mb 0.00 in0.0 mm 0.00 in/hr0.0 mm/hr 0.00 in0.0 mm
04:40 AM 68.2°F20.1°C 47.8°F8.8°C 48% 4.7 mph NE7.6 kmh NE 5.1 mph8.2 kmh 30.09 in1019.0 mb 0.00 in0.0 mm 0.00 in/hr0.0 mm/hr 0.00 in0.0 mm
04:45 AM 68.2°F20.1°C 47.8°F8.8°C 48% 4.3 mph NNE6.9 kmh NNE 5.5 mph8.9 kmh 30.09 in1019.0 mb 0.00 in0.0 mm 0.00 in/hr0.0 mm/hr 0.00 in0.0 mm
04:49 AM 68.2°F20.1°C 47.2°F8.4°C 47% 2.7 mph NE4.3 kmh NE 3.0 mph4.8 kmh 30.09 in1019.0 mb 0.00 in0.0 mm 0.00 in/hr0.0 mm/hr 0.00 in0.0 mm
04:54 AM 68.2°F20.1°C 47.2°F8.4°C 47% 4.7 mph NE7.6 kmh NE 5.1 mph8.2 kmh 30.09 in1019.0 mb 0.00 in0.0 mm 0.00 in/hr0.0 mm/hr 0.00 in0.0 mm
05:00 AM 68.0°F20.0°C 47.0°F8.3°C 47% Calm Calm 3.0 mph4.8 kmh 30.09 in1019.0 mb 0.00 in0.0 mm 0.00 in/hr0.0 mm/hr 0.00 in0.0 mm
05:04 AM 68.0°F20.0°C 47.0°F8.3°C 47% 4.7 mph NNE7.6 kmh NNE 5.1 mph8.2 kmh 30.09 in1019.0 mb 0.00 in0.0 mm 0.00 in/hr0.0 mm/hr 0.00 in0.0 mm
05:09 AM 67.8°F19.9°C 46.9°F8.3°C 47% 7.0 mph NNE11.3 kmh NNE 7.7 mph12.4 kmh 30.09 in1019.0 mb 0.00 in0.0 mm 0.00 in/hr0.0 mm/hr 0.00 in0.0 mm
05:14 AM 67.8°F19.9°C 46.9°F8.3°C 47% 2.3 mph NE3.7 kmh NE 2.6 mph4.2 kmh 30.09 in1019.0 mb 0.00 in0.0 mm 0.00 in/hr0.0 mm/hr 0.00 in0.0 mm
05:19 AM 67.8°F19.9°C 46.3°F7.9°C 46% 2.3 mph NNE3.7 kmh NNE 4.7 mph7.6 kmh 30.09 in1019.0 mb 0.00 in0.0 mm 0.00 in/hr0.0 mm/hr 0.00 in0.0 mm
05:23 AM 67.6°F19.8°C 46.1°F7.8°C 46% 2.7 mph NNE4.3 kmh NNE 3.0 mph4.8 kmh 30.09 in1019.0 mb 0.00 in0.0 mm 0.00 in/hr0.0 mm/hr 0.00 in0.0 mm
05:29 AM 67.5°F19.7°C 46.0°F7.8°C 46% 4.3 mph NNE6.9 kmh NNE 4.7 mph7.6 kmh 30.09 in1019.0 mb 0.00 in0.0 mm 0.00 in/hr0.0 mm/hr 0.00 in0.0 mm
05:35 AM 67.5°F19.7°C 46.0°F7.8°C 46% 5.5 mph NNE8.9 kmh NNE 6.0 mph9.7 kmh 30.09 in1019.0 mb 0.00 in0.0 mm 0.00 in/hr0.0 mm/hr 0.00 in0.0 mm
05:40 AM 67.5°F19.7°C 46.0°F7.8°C 46% 4.3 mph NE6.9 kmh NE 6.0 mph9.7 kmh 30.09 in1019.0 mb 0.00 in0.0 mm 0.00 in/hr0.0 mm/hr 0.00 in0.0 mm
05:45 AM 67.3°F19.6°C 45.8°F7.7°C 46% Calm Calm 7.7 mph12.4 kmh 30.09 in1019.0 mb 0.00 in0.0 mm 0.00 in/hr0.0 mm/hr 0.00 in0.0 mm
05:50 AM 67.3°F19.6°C 45.8°F7.7°C 46% 7.4 mph NNE11.9 kmh NNE 8.1 mph13.0 kmh 30.09 in1019.0 mb 0.00 in0.0 mm 0.00 in/hr0.0 mm/hr 0.00 in0.0 mm
05:54 AM 67.3°F19.6°C 45.8°F7.7°C 46% 4.3 mph SE6.9 kmh SE 7.7 mph12.4 kmh 30.09 in1019.0 mb 0.00 in0.0 mm 0.00 in/hr0.0 mm/hr 0.00 in0.0 mm
06:00 AM 67.1°F19.5°C 45.7°F7.6°C 46% 6.7 mph ENE10.8 kmh ENE 7.7 mph12.4 kmh 30.09 in1019.0 mb 0.00 in0.0 mm 0.00 in/hr0.0 mm/hr 0.00 in0.0 mm
06:04 AM 67.1°F19.5°C 45.1°F7.3°C 45% 7.4 mph NNE11.9 kmh NNE 8.1 mph13.0 kmh 30.09 in1019.0 mb 0.00 in0.0 mm 0.00 in/hr0.0 mm/hr 0.00 in0.0 mm
06:09 AM 67.3°F19.6°C 45.2°F7.3°C 45% 3.9 mph SE6.3 kmh SE 6.4 mph10.3 kmh 30.09 in1019.0 mb 0.00 in0.0 mm 0.00 in/hr0.0 mm/hr 0.00 in0.0 mm
06:14 AM 67.3°F19.6°C 45.2°F7.3°C 45% 5.1 mph NE8.2 kmh NE 10.6 mph17.1 kmh 30.09 in1019.0 mb 0.00 in0.0 mm 0.00 in/hr0.0 mm/hr 0.00 in0.0 mm
06:19 AM 67.3°F19.6°C 45.2°F7.3°C 45% 6.3 mph NNE10.1 kmh NNE 6.8 mph10.9 kmh 30.09 in1019.0 mb 0.00 in0.0 mm 0.00 in/hr0.0 mm/hr 0.00 in0.0 mm
06:24 AM 67.3°F19.6°C 45.2°F7.3°C 45% 2.3 mph NNE3.7 kmh NNE 7.7 mph12.4 kmh 30.09 in1019.0 mb 0.00 in0.0 mm 0.00 in/hr0.0 mm/hr 0.00 in0.0 mm
06:29 AM 67.1°F19.5°C 45.1°F7.3°C 45% 3.5 mph WSW5.6 kmh WSW 3.8 mph6.1 kmh 30.09 in1019.0 mb 0.00 in0.0 mm 0.00 in/hr0.0 mm/hr 0.00 in0.0 mm
06:34 AM 67.1°F19.5°C 45.1°F7.3°C 45% 8.6 mph E13.8 kmh E 9.4 mph15.1 kmh 30.09 in1019.0 mb 0.00 in0.0 mm 0.00 in/hr0.0 mm/hr 0.00 in0.0 mm
06:40 AM 67.1°F19.5°C 45.1°F7.3°C 45% 2.7 mph NNE4.3 kmh NNE 3.0 mph4.8 kmh 30.12 in1020.0 mb 0.00 in0.0 mm 0.00 in/hr0.0 mm/hr 0.00 in0.0 mm
06:45 AM 67.1°F19.5°C 45.1°F7.3°C 45% 5.1 mph NNE8.2 kmh NNE 6.4 mph10.3 kmh 30.12 in1020.0 mb 0.00 in0.0 mm 0.00 in/hr0.0 mm/hr 0.00 in0.0 mm
06:50 AM 67.1°F19.5°C 45.1°F7.3°C 45% 12.5 mph NNE20.1 kmh NNE 13.6 mph21.9 kmh 30.12 in1020.0 mb 0.00 in0.0 mm 0.00 in/hr0.0 mm/hr 0.00 in0.0 mm
06:55 AM 67.1°F19.5°C 45.1°F7.3°C 45% 2.3 mph NNE3.7 kmh NNE 16.6 mph26.7 kmh 30.12 in1020.0 mb 0.00 in0.0 mm 0.00 in/hr0.0 mm/hr 0.00 in0.0 mm
07:00 AM 66.9°F19.4°C 44.9°F7.2°C 45% 5.1 mph NNE8.2 kmh NNE 9.4 mph15.1 kmh 30.12 in1020.0 mb 0.00 in0.0 mm 0.00 in/hr0.0 mm/hr 0.00 in0.0 mm
07:04 AM 66.9°F19.4°C 44.9°F7.2°C 45% 2.7 mph ENE4.3 kmh ENE 11.9 mph19.2 kmh 30.12 in1020.0 mb 0.00 in0.0 mm 0.00 in/hr0.0 mm/hr 0.00 in0.0 mm
07:09 AM 66.9°F19.4°C 44.9°F7.2°C 45% Calm Calm 11.9 mph19.2 kmh 30.12 in1020.0 mb 0.00 in0.0 mm 0.00 in/hr0.0 mm/hr 0.00 in0.0 mm
07:14 AM 66.9°F19.4°C 44.9°F7.2°C 45% 1.6 mph NE2.6 kmh NE 8.1 mph13.0 kmh 30.12 in1020.0 mb 0.00 in0.0 mm 0.00 in/hr0.0 mm/hr 0.00 in0.0 mm
07:19 AM 66.7°F19.3°C 44.8°F7.1°C 45% 7.8 mph NNE12.6 kmh NNE 11.5 mph18.5 kmh 30.12 in1020.0 mb 0.00 in0.0 mm 0.00 in/hr0.0 mm/hr 0.00 in0.0 mm
07:24 AM 66.7°F19.3°C 44.8°F7.1°C 45% 4.3 mph E6.9 kmh E 4.7 mph7.6 kmh 30.12 in1020.0 mb 0.00 in0.0 mm 0.00 in/hr0.0 mm/hr 0.00 in0.0 mm
07:29 AM 66.7°F19.3°C 45.3°F7.4°C 46% Calm Calm -- 30.12 in1020.0 mb 0.00 in0.0 mm 0.00 in/hr0.0 mm/hr 0.00 in0.0 mm
07:34 AM 66.6°F19.2°C 45.2°F7.3°C 46% 3.5 mph NE5.6 kmh NE 7.2 mph11.6 kmh 30.12 in1020.0 mb 0.00 in0.0 mm 0.00 in/hr0.0 mm/hr 0.00 in0.0 mm
07:40 AM 66.6°F19.2°C 44.6°F7.0°C 45% 9.8 mph NE15.8 kmh NE 10.6 mph17.1 kmh 30.15 in1021.0 mb 0.00 in0.0 mm 0.00 in/hr0.0 mm/hr 0.00 in0.0 mm
07:45 AM 66.6°F19.2°C 44.6°F7.0°C 45% 4.7 mph NNE7.6 kmh NNE 5.5 mph8.9 kmh 30.15 in1021.0 mb 0.00 in0.0 mm 0.00 in/hr0.0 mm/hr 0.00 in0.0 mm
07:50 AM 66.6°F19.2°C 44.6°F7.0°C 45% 4.3 mph NE6.9 kmh NE 8.1 mph13.0 kmh 30.15 in1021.0 mb 0.00 in0.0 mm 0.00 in/hr0.0 mm/hr 0.00 in0.0 mm
07:55 AM 66.6°F19.2°C 44.6°F7.0°C 45% 5.5 mph NE8.9 kmh NE 6.8 mph10.9 kmh 30.15 in1021.0 mb 0.00 in0.0 mm 0.00 in/hr0.0 mm/hr 0.00 in0.0 mm
08:00 AM 66.6°F19.2°C 44.6°F7.0°C 45% 9.8 mph NNE15.8 kmh NNE 10.6 mph17.1 kmh 30.15 in1021.0 mb 0.00 in0.0 mm 0.00 in/hr0.0 mm/hr 0.00 in0.0 mm
08:04 AM 66.6°F19.2°C 44.6°F7.0°C 45% 5.5 mph NNE8.9 kmh NNE 7.7 mph12.4 kmh 30.15 in1021.0 mb 0.00 in0.0 mm 0.00 in/hr0.0 mm/hr 0.00 in0.0 mm
08:09 AM 66.6°F19.2°C 44.6°F7.0°C 45% 5.1 mph NE8.2 kmh NE 5.5 mph8.9 kmh 30.15 in1021.0 mb 0.00 in0.0 mm 0.00 in/hr0.0 mm/hr 0.00 in0.0 mm
08:14 AM 66.7°F19.3°C 45.3°F7.4°C 46% 4.7 mph NE7.6 kmh NE 6.0 mph9.7 kmh 30.15 in1021.0 mb 0.00 in0.0 mm 0.00 in/hr0.0 mm/hr 0.00 in0.0 mm
08:19 AM 66.7°F19.3°C 44.8°F7.1°C 45% 6.3 mph NNE10.1 kmh NNE 8.1 mph13.0 kmh 30.15 in1021.0 mb 0.00 in0.0 mm 0.00 in/hr0.0 mm/hr 0.00 in0.0 mm
08:24 AM 66.7°F19.3°C 44.8°F7.1°C 45% 6.3 mph NNE10.1 kmh NNE 8.9 mph14.3 kmh 30.15 in1021.0 mb 0.00 in0.0 mm 0.00 in/hr0.0 mm/hr 0.00 in0.0 mm
08:28 AM 66.7°F19.3°C 44.8°F7.1°C 45% 2.7 mph E4.3 kmh E 9.4 mph15.1 kmh 30.15 in1021.0 mb 0.00 in0.0 mm 0.00 in/hr0.0 mm/hr 0.00 in0.0 mm
08:34 AM 66.7°F19.3°C 44.8°F7.1°C 45% 4.7 mph NE7.6 kmh NE 7.7 mph12.4 kmh 30.15 in1021.0 mb 0.00 in0.0 mm 0.00 in/hr0.0 mm/hr 0.00 in0.0 mm
08:40 AM 66.7°F19.3°C 44.8°F7.1°C 45% 9.4 mph NNE15.1 kmh NNE 10.2 mph16.4 kmh 30.18 in1022.0 mb 0.00 in0.0 mm 0.00 in/hr0.0 mm/hr 0.00 in0.0 mm
08:45 AM 66.9°F19.4°C 44.9°F7.2°C 45% Calm Calm -- 30.18 in1022.0 mb 0.00 in0.0 mm 0.00 in/hr0.0 mm/hr 0.00 in0.0 mm
08:50 AM 66.9°F19.4°C 44.9°F7.2°C 45% 5.1 mph NNE8.2 kmh NNE 5.5 mph8.9 kmh 30.18 in1022.0 mb 0.00 in0.0 mm 0.00 in/hr0.0 mm/hr 0.00 in0.0 mm
08:55 AM 66.7°F19.3°C 44.8°F7.1°C 45% 5.9 mph NE9.5 kmh NE 12.3 mph19.8 kmh 30.18 in1022.0 mb 0.00 in0.0 mm 0.00 in/hr0.0 mm/hr 0.00 in0.0 mm
09:00 AM 66.7°F19.3°C 44.8°F7.1°C 45% 2.0 mph S3.2 kmh S 2.1 mph3.4 kmh 30.18 in1022.0 mb 0.00 in0.0 mm 0.00 in/hr0.0 mm/hr 0.00 in0.0 mm
09:04 AM 67.1°F19.5°C 45.1°F7.3°C 45% 5.5 mph NE8.9 kmh NE 6.0 mph9.7 kmh 30.18 in1022.0 mb 0.00 in0.0 mm 0.00 in/hr0.0 mm/hr 0.00 in0.0 mm
09:09 AM 67.1°F19.5°C 45.1°F7.3°C 45% Calm Calm 4.3 mph6.9 kmh 30.18 in1022.0 mb 0.00 in0.0 mm 0.00 in/hr0.0 mm/hr 0.00 in0.0 mm
09:14 AM 67.3°F19.6°C 45.2°F7.3°C 45% 4.3 mph 6.9 kmh 6.4 mph10.3 kmh 30.18 in1022.0 mb 0.00 in0.0 mm 0.00 in/hr0.0 mm/hr 0.00 in0.0 mm
09:19 AM 67.5°F19.7°C 45.4°F7.4°C 45% Calm Calm -- 30.18 in1022.0 mb 0.00 in0.0 mm 0.00 in/hr0.0 mm/hr 0.00 in0.0 mm
09:24 AM 67.8°F19.9°C 45.7°F7.6°C 45% Calm Calm 7.7 mph12.4 kmh 30.18 in1022.0 mb 0.00 in0.0 mm 0.00 in/hr0.0 mm/hr 0.00 in0.0 mm
09:29 AM 67.8°F19.9°C 45.1°F7.3°C 44% 9.4 mph NNE15.1 kmh NNE 10.2 mph16.4 kmh 30.18 in1022.0 mb 0.00 in0.0 mm 0.00 in/hr0.0 mm/hr 0.00 in0.0 mm
09:34 AM 68.0°F20.0°C 44.7°F7.1°C 43% 3.5 mph NE5.6 kmh NE 5.5 mph8.9 kmh 30.18 in1022.0 mb 0.00 in0.0 mm 0.00 in/hr0.0 mm/hr 0.00 in0.0 mm
09:40 AM 68.4°F20.2°C 45.0°F7.2°C 43% 5.1 mph NE8.2 kmh NE 9.4 mph15.1 kmh 30.18 in1022.0 mb 0.00 in0.0 mm 0.00 in/hr0.0 mm/hr 0.00 in0.0 mm
09:45 AM 68.7°F20.4°C 46.0°F7.8°C 44% 5.1 mph NNE8.2 kmh NNE 5.5 mph8.9 kmh 30.18 in1022.0 mb 0.00 in0.0 mm 0.00 in/hr0.0 mm/hr 0.00 in0.0 mm
09:50 AM 69.3°F20.7°C 45.8°F7.7°C 43% 4.3 mph NNW6.9 kmh NNW 11.9 mph19.2 kmh 30.18 in1022.0 mb 0.00 in0.0 mm 0.00 in/hr0.0 mm/hr 0.00 in0.0 mm
09:55 AM 69.3°F20.7°C 45.2°F7.3°C 42% 9.4 mph NNE15.1 kmh NNE 10.2 mph16.4 kmh 30.18 in1022.0 mb 0.00 in0.0 mm 0.00 in/hr0.0 mm/hr 0.00 in0.0 mm
09:59 AM 69.4°F20.8°C 45.4°F7.4°C 42% 6.3 mph NNE10.1 kmh NNE 7.7 mph12.4 kmh 30.18 in1022.0 mb 0.00 in0.0 mm 0.00 in/hr0.0 mm/hr 0.00 in0.0 mm
10:04 AM 70.0°F21.1°C 45.9°F7.7°C 42% 3.5 mph NE5.6 kmh NE 3.8 mph6.1 kmh 30.18 in1022.0 mb 0.00 in0.0 mm 0.00 in/hr0.0 mm/hr 0.00 in0.0 mm
10:09 AM 70.0°F21.1°C 45.2°F7.3°C 41% 7.4 mph S11.9 kmh S 8.1 mph13.0 kmh 30.18 in1022.0 mb 0.00 in0.0 mm 0.00 in/hr0.0 mm/hr 0.00 in0.0 mm
10:14 AM 70.5°F21.4°C 45.7°F7.6°C 41% 3.9 mph NE6.3 kmh NE 4.3 mph6.9 kmh 30.18 in1022.0 mb 0.00 in0.0 mm 0.00 in/hr0.0 mm/hr 0.00 in0.0 mm
10:19 AM 70.5°F21.4°C 45.1°F7.3°C 40% 8.6 mph NNE13.8 kmh NNE 9.4 mph15.1 kmh 30.18 in1022.0 mb 0.00 in0.0 mm 0.00 in/hr0.0 mm/hr 0.00 in0.0 mm
10:24 AM 70.3°F21.3°C 43.6°F6.4°C 38% 14.9 mph NNE24.0 kmh NNE 16.2 mph26.1 kmh 30.18 in1022.0 mb 0.00 in0.0 mm 0.00 in/hr0.0 mm/hr 0.00 in0.0 mm
10:29 AM 70.5°F21.4°C 44.4°F6.9°C 39% 4.7 mph WNW7.6 kmh WNW 6.4 mph10.3 kmh 30.18 in1022.0 mb 0.00 in0.0 mm 0.00 in/hr0.0 mm/hr 0.00 in0.0 mm
10:34 AM 70.7°F21.5°C 44.6°F7.0°C 39% 2.7 mph E4.3 kmh E 10.2 mph16.4 kmh 30.18 in1022.0 mb 0.00 in0.0 mm 0.00 in/hr0.0 mm/hr 0.00 in0.0 mm
10:40 AM 71.1°F21.7°C 44.9°F7.2°C 39% 5.5 mph NE8.9 kmh NE 6.4 mph10.3 kmh 30.18 in1022.0 mb 0.00 in0.0 mm 0.00 in/hr0.0 mm/hr 0.00 in0.0 mm
10:45 AM 71.1°F21.7°C 43.5°F6.4°C 37% 9.4 mph NE15.1 kmh NE 11.1 mph17.9 kmh 30.18 in1022.0 mb 0.00 in0.0 mm 0.00 in/hr0.0 mm/hr 0.00 in0.0 mm
10:50 AM 71.2°F21.8°C 44.4°F6.9°C 38% 1.6 mph NNE2.6 kmh NNE 8.1 mph13.0 kmh 30.18 in1022.0 mb 0.00 in0.0 mm 0.00 in/hr0.0 mm/hr 0.00 in0.0 mm
10:54 AM 72.0°F22.2°C 45.0°F7.2°C 38% Calm Calm -- 30.18 in1022.0 mb 0.00 in0.0 mm 0.00 in/hr0.0 mm/hr 0.00 in0.0 mm
11:00 AM 73.4°F23.0°C 45.6°F7.6°C 37% 7.0 mph NNE11.3 kmh NNE 7.7 mph12.4 kmh 30.18 in1022.0 mb 0.00 in0.0 mm 0.00 in/hr0.0 mm/hr 0.00 in0.0 mm
11:04 AM 74.3°F23.5°C 45.7°F7.6°C 36% 4.7 mph WSW7.6 kmh WSW 5.1 mph8.2 kmh 30.18 in1022.0 mb 0.00 in0.0 mm 0.00 in/hr0.0 mm/hr 0.00 in0.0 mm
11:09 AM 75.4°F24.1°C 45.9°F7.7°C 35% 7.4 mph NNE11.9 kmh NNE 8.1 mph13.0 kmh 30.21 in1023.0 mb 0.00 in0.0 mm 0.00 in/hr0.0 mm/hr 0.00 in0.0 mm
11:14 AM 75.7°F24.3°C 45.4°F7.4°C 34% 2.3 mph SSE3.7 kmh SSE 8.1 mph13.0 kmh 30.21 in1023.0 mb 0.00 in0.0 mm 0.00 in/hr0.0 mm/hr 0.00 in0.0 mm
11:19 AM 76.6°F24.8°C 47.0°F8.3°C 35% 3.9 mph NNE6.3 kmh NNE 4.3 mph6.9 kmh 30.21 in1023.0 mb 0.00 in0.0 mm 0.00 in/hr0.0 mm/hr 0.00 in0.0 mm
11:24 AM 76.8°F24.9°C 45.6°F7.6°C 33% 1.6 mph NNE2.6 kmh NNE 7.2 mph11.6 kmh 30.21 in1023.0 mb 0.00 in0.0 mm 0.00 in/hr0.0 mm/hr 0.00 in0.0 mm
11:29 AM 76.3°F24.6°C 45.1°F7.3°C 33% 4.3 mph NNE6.9 kmh NNE 6.4 mph10.3 kmh 30.21 in1023.0 mb 0.00 in0.0 mm 0.00 in/hr0.0 mm/hr 0.00 in0.0 mm
11:34 AM 76.1°F24.5°C 44.9°F7.2°C 33% Calm Calm -- 30.21 in1023.0 mb 0.00 in0.0 mm 0.00 in/hr0.0 mm/hr 0.00 in0.0 mm
12:04 PM 78.1°F25.6°C 45.0°F7.2°C 31% 4.3 mph NE6.9 kmh NE 7.2 mph11.6 kmh 30.18 in1022.0 mb 0.00 in0.0 mm 0.00 in/hr0.0 mm/hr 0.00 in0.0 mm
12:09 PM 78.4°F25.8°C 45.3°F7.4°C 31% Calm Calm -- 30.18 in1022.0 mb 0.00 in0.0 mm 0.00 in/hr0.0 mm/hr 0.00 in0.0 mm
12:14 PM 77.9°F25.5°C 44.9°F7.2°C 31% 4.7 mph ENE7.6 kmh ENE 7.2 mph11.6 kmh 30.18 in1022.0 mb 0.00 in0.0 mm 0.00 in/hr0.0 mm/hr 0.00 in0.0 mm
12:19 PM 77.9°F25.5°C 44.0°F6.7°C 30% 6.7 mph WSW10.8 kmh WSW 7.2 mph11.6 kmh 30.18 in1022.0 mb 0.00 in0.0 mm 0.00 in/hr0.0 mm/hr 0.00 in0.0 mm
12:24 PM 78.1°F25.6°C 45.0°F7.2°C 31% Calm Calm 7.2 mph11.6 kmh 30.18 in1022.0 mb 0.00 in0.0 mm 0.00 in/hr0.0 mm/hr 0.00 in0.0 mm
12:29 PM 78.3°F25.7°C 44.3°F6.8°C 30% 2.7 mph NE4.3 kmh NE 8.1 mph13.0 kmh 30.18 in1022.0 mb 0.00 in0.0 mm 0.00 in/hr0.0 mm/hr 0.00 in0.0 mm
12:34 PM 78.3°F25.7°C 44.3°F6.8°C 30% 2.7 mph NE4.3 kmh NE 3.0 mph4.8 kmh 30.18 in1022.0 mb 0.00 in0.0 mm 0.00 in/hr0.0 mm/hr 0.00 in0.0 mm
12:40 PM 78.4°F25.8°C 44.5°F6.9°C 30% Calm Calm -- 30.18 in1022.0 mb 0.00 in0.0 mm 0.00 in/hr0.0 mm/hr 0.00 in0.0 mm
12:45 PM 79.2°F26.2°C 44.2°F6.8°C 29% 5.5 mph NNE8.9 kmh NNE 6.0 mph9.7 kmh 30.18 in1022.0 mb 0.00 in0.0 mm 0.00 in/hr0.0 mm/hr 0.00 in0.0 mm
12:50 PM 79.2°F26.2°C 45.1°F7.3°C 30% Calm Calm 8.1 mph13.0 kmh 30.18 in1022.0 mb 0.00 in0.0 mm 0.00 in/hr0.0 mm/hr 0.00 in0.0 mm
12:55 PM 79.5°F26.4°C 44.5°F6.9°C 29% 3.9 mph NE6.3 kmh NE 4.3 mph6.9 kmh 30.18 in1022.0 mb 0.00 in0.0 mm 0.00 in/hr0.0 mm/hr 0.00 in0.0 mm
01:00 PM 79.9°F26.6°C 45.7°F7.6°C 30% 2.7 mph SSE4.3 kmh SSE 3.0 mph4.8 kmh 30.18 in1022.0 mb 0.00 in0.0 mm 0.00 in/hr0.0 mm/hr 0.00 in0.0 mm
01:04 PM 79.0°F26.1°C 45.8°F7.7°C 31% 5.5 mph SE8.9 kmh SE 6.0 mph9.7 kmh 30.18 in1022.0 mb 0.00 in0.0 mm 0.00 in/hr0.0 mm/hr 0.00 in0.0 mm
01:09 PM 77.2°F25.1°C 46.7°F8.2°C 34% 2.0 mph SSE3.2 kmh SSE 2.1 mph3.4 kmh 30.15 in1021.0 mb 0.00 in0.0 mm 0.00 in/hr0.0 mm/hr 0.00 in0.0 mm
01:14 PM 76.3°F24.6°C 47.4°F8.6°C 36% Calm Calm 5.5 mph8.9 kmh 30.15 in1021.0 mb 0.00 in0.0 mm 0.00 in/hr0.0 mm/hr 0.00 in0.0 mm
01:19 PM 75.2°F24.0°C 47.9°F8.8°C 38% Calm Calm 1.7 mph2.7 kmh 30.15 in1021.0 mb 0.00 in0.0 mm 0.00 in/hr0.0 mm/hr 0.00 in0.0 mm
01:24 PM 74.7°F23.7°C 48.8°F9.3°C 40% 5.5 mph S8.9 kmh S 6.0 mph9.7 kmh 30.15 in1021.0 mb 0.00 in0.0 mm 0.00 in/hr0.0 mm/hr 0.00 in0.0 mm
01:29 PM 74.3°F23.5°C 49.1°F9.5°C 41% Calm Calm 3.8 mph6.1 kmh 30.15 in1021.0 mb 0.00 in0.0 mm 0.00 in/hr0.0 mm/hr 0.00 in0.0 mm
01:34 PM 74.1°F23.4°C 48.9°F9.4°C 41% 5.1 mph SSE8.2 kmh SSE 5.5 mph8.9 kmh 30.15 in1021.0 mb 0.00 in0.0 mm 0.00 in/hr0.0 mm/hr 0.00 in0.0 mm
01:39 PM 73.9°F23.3°C 49.4°F9.7°C 42% Calm Calm 3.8 mph6.1 kmh 30.15 in1021.0 mb 0.00 in0.0 mm 0.00 in/hr0.0 mm/hr 0.00 in0.0 mm
01:45 PM 73.8°F23.2°C 49.9°F9.9°C 43% Calm Calm -- 30.15 in1021.0 mb 0.00 in0.0 mm 0.00 in/hr0.0 mm/hr 0.00 in0.0 mm
01:50 PM 73.8°F23.2°C 49.9°F9.9°C 43% 2.3 mph NNE3.7 kmh NNE 3.0 mph4.8 kmh 30.15 in1021.0 mb 0.00 in0.0 mm 0.00 in/hr0.0 mm/hr 0.00 in0.0 mm
01:55 PM 73.6°F23.1°C 50.4°F10.2°C 44% 3.5 mph S5.6 kmh S 7.2 mph11.6 kmh 30.15 in1021.0 mb 0.00 in0.0 mm 0.00 in/hr0.0 mm/hr 0.00 in0.0 mm
02:00 PM 73.6°F23.1°C 50.4°F10.2°C 44% Calm Calm 2.6 mph4.2 kmh 30.15 in1021.0 mb 0.00 in0.0 mm 0.00 in/hr0.0 mm/hr 0.00 in0.0 mm
02:04 PM 73.6°F23.1°C 50.4°F10.2°C 44% 2.7 mph SE4.3 kmh SE 3.0 mph4.8 kmh 30.15 in1021.0 mb 0.00 in0.0 mm 0.00 in/hr0.0 mm/hr 0.00 in0.0 mm
02:09 PM 73.6°F23.1°C 50.4°F10.2°C 44% Calm Calm -- 30.15 in1021.0 mb 0.00 in0.0 mm 0.00 in/hr0.0 mm/hr 0.00 in0.0 mm
02:14 PM 73.6°F23.1°C 50.4°F10.2°C 44% Calm Calm 2.6 mph4.2 kmh 30.15 in1021.0 mb 0.00 in0.0 mm 0.00 in/hr0.0 mm/hr 0.00 in0.0 mm
02:19 PM 73.4°F23.0°C 50.2°F10.1°C 44% Calm Calm -- 30.15 in1021.0 mb 0.00 in0.0 mm 0.00 in/hr0.0 mm/hr 0.00 in0.0 mm
02:24 PM 73.4°F23.0°C 50.2°F10.1°C 44% 1.6 mph NNE2.6 kmh NNE 2.1 mph3.4 kmh 30.15 in1021.0 mb 0.00 in0.0 mm 0.00 in/hr0.0 mm/hr 0.00 in0.0 mm
02:29 PM 73.2°F22.9°C 50.6°F10.3°C 45% Calm Calm 3.0 mph4.8 kmh 30.15 in1021.0 mb 0.00 in0.0 mm 0.00 in/hr0.0 mm/hr 0.00 in0.0 mm
02:34 PM 73.0°F22.8°C 51.1°F10.6°C 46% Calm Calm -- 30.15 in1021.0 mb 0.00 in0.0 mm 0.00 in/hr0.0 mm/hr 0.00 in0.0 mm
02:38 PM 72.7°F22.6°C 50.7°F10.4°C 46% Calm Calm 6.8 mph10.9 kmh 30.15 in1021.0 mb 0.00 in0.0 mm 0.00 in/hr0.0 mm/hr 0.00 in0.0 mm
02:44 PM 72.7°F22.6°C 51.9°F11.1°C 48% 4.3 mph SE6.9 kmh SE 7.2 mph11.6 kmh 30.15 in1021.0 mb 0.00 in0.0 mm 0.00 in/hr0.0 mm/hr 0.00 in0.0 mm
02:50 PM 72.5°F22.5°C 51.7°F10.9°C 48% 5.5 mph SSE8.9 kmh SSE 6.4 mph10.3 kmh 30.15 in1021.0 mb 0.00 in0.0 mm 0.00 in/hr0.0 mm/hr 0.00 in0.0 mm
02:55 PM 72.5°F22.5°C 51.7°F10.9°C 48% Calm Calm 2.1 mph3.4 kmh 30.15 in1021.0 mb 0.00 in0.0 mm 0.00 in/hr0.0 mm/hr 0.00 in0.0 mm
03:00 PM 72.5°F22.5°C 52.3°F11.3°C 49% Calm Calm 4.7 mph7.6 kmh 30.15 in1021.0 mb 0.00 in0.0 mm 0.00 in/hr0.0 mm/hr 0.00 in0.0 mm
03:05 PM 72.5°F22.5°C 52.3°F11.3°C 49% 5.9 mph SE9.5 kmh SE 6.4 mph10.3 kmh 30.15 in1021.0 mb 0.00 in0.0 mm 0.00 in/hr0.0 mm/hr 0.00 in0.0 mm
03:09 PM 72.3°F22.4°C 52.1°F11.2°C 49% 2.0 mph SW3.2 kmh SW 2.1 mph3.4 kmh 30.15 in1021.0 mb 0.00 in0.0 mm 0.00 in/hr0.0 mm/hr 0.00 in0.0 mm
03:14 PM 72.3°F22.4°C 52.1°F11.2°C 49% 2.0 mph SE3.2 kmh SE 4.7 mph7.6 kmh 30.15 in1021.0 mb 0.00 in0.0 mm 0.00 in/hr0.0 mm/hr 0.00 in0.0 mm
03:19 PM 72.1°F22.3°C 51.9°F11.1°C 49% 7.0 mph NNE11.3 kmh NNE 7.7 mph12.4 kmh 30.15 in1021.0 mb 0.00 in0.0 mm 0.00 in/hr0.0 mm/hr 0.00 in0.0 mm
03:24 PM 72.0°F22.2°C 51.8°F11.0°C 49% 2.3 mph E3.7 kmh E 2.6 mph4.2 kmh 30.15 in1021.0 mb 0.00 in0.0 mm 0.00 in/hr0.0 mm/hr 0.00 in0.0 mm
03:29 PM 72.0°F22.2°C 51.8°F11.0°C 49% Calm Calm 1.7 mph2.7 kmh 30.15 in1021.0 mb 0.00 in0.0 mm 0.00 in/hr0.0 mm/hr 0.00 in0.0 mm
03:34 PM 72.0°F22.2°C 52.3°F11.3°C 50% 5.1 mph S8.2 kmh S 5.5 mph8.9 kmh 30.15 in1021.0 mb 0.00 in0.0 mm 0.00 in/hr0.0 mm/hr 0.00 in0.0 mm
03:39 PM 71.8°F22.1°C 52.2°F11.2°C 50% Calm Calm 1.7 mph2.7 kmh 30.15 in1021.0 mb 0.00 in0.0 mm 0.00 in/hr0.0 mm/hr 0.00 in0.0 mm
03:44 PM 71.8°F22.1°C 52.2°F11.2°C 50% Calm Calm 3.8 mph6.1 kmh 30.15 in1021.0 mb 0.00 in0.0 mm 0.00 in/hr0.0 mm/hr 0.00 in0.0 mm
03:50 PM 71.6°F22.0°C 52.0°F11.1°C 50% Calm Calm -- 30.15 in1021.0 mb 0.00 in0.0 mm 0.00 in/hr0.0 mm/hr 0.00 in0.0 mm
03:55 PM 71.6°F22.0°C 52.0°F11.1°C 50% 2.3 mph E3.7 kmh E 2.6 mph4.2 kmh 30.15 in1021.0 mb 0.00 in0.0 mm 0.00 in/hr0.0 mm/hr 0.00 in0.0 mm
04:00 PM 71.4°F21.9°C 51.8°F11.0°C 50% Calm Calm 4.3 mph6.9 kmh 30.15 in1021.0 mb 0.00 in0.0 mm 0.00 in/hr0.0 mm/hr 0.00 in0.0 mm
04:05 PM 71.4°F21.9°C 52.4°F11.3°C 51% Calm Calm -- 30.15 in1021.0 mb 0.00 in0.0 mm 0.00 in/hr0.0 mm/hr 0.00 in0.0 mm
04:09 PM 71.4°F21.9°C 52.4°F11.3°C 51% 2.7 mph SE4.3 kmh SE 3.0 mph4.8 kmh 30.15 in1021.0 mb 0.00 in0.0 mm 0.00 in/hr0.0 mm/hr 0.00 in0.0 mm
04:14 PM 71.6°F22.0°C 52.0°F11.1°C 50% Calm Calm 3.0 mph4.8 kmh 30.15 in1021.0 mb 0.00 in0.0 mm 0.00 in/hr0.0 mm/hr 0.00 in0.0 mm
04:19 PM 71.6°F22.0°C 52.0°F11.1°C 50% Calm Calm 5.1 mph8.2 kmh 30.15 in1021.0 mb 0.00 in0.0 mm 0.00 in/hr0.0 mm/hr 0.00 in0.0 mm
04:24 PM 71.6°F22.0°C 52.0°F11.1°C 50% 3.5 mph SSE5.6 kmh SSE 3.8 mph6.1 kmh 30.15 in1021.0 mb 0.00 in0.0 mm 0.00 in/hr0.0 mm/hr 0.00 in0.0 mm
04:29 PM 71.6°F22.0°C 52.0°F11.1°C 50% Calm Calm -- 30.15 in1021.0 mb 0.00 in0.0 mm 0.00 in/hr0.0 mm/hr 0.00 in0.0 mm
04:34 PM 71.2°F21.8°C 51.7°F10.9°C 50% 1.6 mph SSE2.6 kmh SSE 1.7 mph2.7 kmh 30.15 in1021.0 mb 0.00 in0.0 mm 0.00 in/hr0.0 mm/hr 0.00 in0.0 mm
04:39 PM 71.2°F21.8°C 51.7°F10.9°C 50% Calm Calm -- 30.15 in1021.0 mb 0.00 in0.0 mm 0.00 in/hr0.0 mm/hr 0.00 in0.0 mm
04:44 PM 71.1°F21.7°C 51.5°F10.8°C 50% 3.5 mph SE5.6 kmh SE 3.8 mph6.1 kmh 30.15 in1021.0 mb 0.00 in0.0 mm 0.00 in/hr0.0 mm/hr 0.00 in0.0 mm
04:49 PM 71.1°F21.7°C 51.5°F10.8°C 50% Calm Calm -- 30.15 in1021.0 mb 0.00 in0.0 mm 0.00 in/hr0.0 mm/hr 0.00 in0.0 mm
04:55 PM 71.1°F21.7°C 51.5°F10.8°C 50% Calm Calm -- 30.15 in1021.0 mb 0.00 in0.0 mm 0.00 in/hr0.0 mm/hr 0.00 in0.0 mm
05:00 PM 71.1°F21.7°C 51.5°F10.8°C 50% Calm Calm -- 30.15 in1021.0 mb 0.00 in0.0 mm 0.00 in/hr0.0 mm/hr 0.00 in0.0 mm
05:05 PM 71.1°F21.7°C 51.5°F10.8°C 50% 2.3 mph S3.7 kmh S 2.6 mph4.2 kmh 30.15 in1021.0 mb 0.00 in0.0 mm 0.00 in/hr0.0 mm/hr 0.00 in0.0 mm
05:09 PM 71.1°F21.7°C 51.5°F10.8°C 50% Calm Calm -- 30.15 in1021.0 mb 0.00 in0.0 mm 0.00 in/hr0.0 mm/hr 0.00 in0.0 mm
05:14 PM 70.9°F21.6°C 51.3°F10.7°C 50% 2.7 mph NE4.3 kmh NE 4.3 mph6.9 kmh 30.15 in1021.0 mb 0.00 in0.0 mm 0.00 in/hr0.0 mm/hr 0.00 in0.0 mm
05:19 PM 70.7°F21.5°C 51.2°F10.7°C 50% Calm Calm 5.1 mph8.2 kmh 30.15 in1021.0 mb 0.00 in0.0 mm 0.00 in/hr0.0 mm/hr 0.00 in0.0 mm
05:24 PM 70.5°F21.4°C 51.0°F10.6°C 50% 1.6 mph SSE2.6 kmh SSE 1.7 mph2.7 kmh 30.15 in1021.0 mb 0.00 in0.0 mm 0.00 in/hr0.0 mm/hr 0.00 in0.0 mm
05:29 PM 70.5°F21.4°C 51.0°F10.6°C 50% Calm Calm -- 30.15 in1021.0 mb 0.00 in0.0 mm 0.00 in/hr0.0 mm/hr 0.00 in0.0 mm
05:34 PM 70.2°F21.2°C 50.7°F10.4°C 50% 3.5 mph E5.6 kmh E 3.8 mph6.1 kmh 30.15 in1021.0 mb 0.00 in0.0 mm 0.00 in/hr0.0 mm/hr 0.00 in0.0 mm
05:39 PM 70.2°F21.2°C 50.7°F10.4°C 50% Calm Calm -- 30.15 in1021.0 mb 0.00 in0.0 mm 0.00 in/hr0.0 mm/hr 0.00 in0.0 mm
05:44 PM 70.2°F21.2°C 51.2°F10.7°C 51% Calm Calm -- 30.15 in1021.0 mb 0.00 in0.0 mm 0.00 in/hr0.0 mm/hr 0.00 in0.0 mm
05:50 PM 70.0°F21.1°C 51.0°F10.6°C 51% Calm Calm -- 30.15 in1021.0 mb 0.00 in0.0 mm 0.00 in/hr0.0 mm/hr 0.00 in0.0 mm
05:55 PM 69.8°F21.0°C 50.9°F10.5°C 51% Calm Calm 2.6 mph4.2 kmh 30.15 in1021.0 mb 0.00 in0.0 mm 0.00 in/hr0.0 mm/hr 0.00 in0.0 mm
06:00 PM 69.6°F20.9°C 50.7°F10.4°C 51% Calm Calm -- 30.15 in1021.0 mb 0.00 in0.0 mm 0.00 in/hr0.0 mm/hr 0.00 in0.0 mm
06:05 PM 69.4°F20.8°C 50.5°F10.3°C 51% Calm Calm -- 30.15 in1021.0 mb 0.00 in0.0 mm 0.00 in/hr0.0 mm/hr 0.00 in0.0 mm
06:08 PM 69.4°F20.8°C 50.5°F10.3°C 51% Calm Calm -- 30.15 in1021.0 mb 0.00 in0.0 mm 0.00 in/hr0.0 mm/hr 0.00 in0.0 mm
06:14 PM 69.3°F20.7°C 50.9°F10.5°C 52% Calm Calm -- 30.15 in1021.0 mb 0.00 in0.0 mm 0.00 in/hr0.0 mm/hr 0.00 in0.0 mm
06:19 PM 69.1°F20.6°C 50.7°F10.4°C 52% Calm Calm -- 30.15 in1021.0 mb 0.00 in0.0 mm 0.00 in/hr0.0 mm/hr 0.00 in0.0 mm
06:24 PM 69.1°F20.6°C 51.3°F10.7°C 53% Calm Calm -- 30.18 in1022.0 mb 0.00 in0.0 mm 0.00 in/hr0.0 mm/hr 0.00 in0.0 mm
06:29 PM 68.9°F20.5°C 51.1°F10.6°C 53% Calm Calm 2.6 mph4.2 kmh 30.18 in1022.0 mb 0.00 in0.0 mm 0.00 in/hr0.0 mm/hr 0.00 in0.0 mm
06:34 PM 68.7°F20.4°C 50.4°F10.2°C 52% Calm Calm -- 30.18 in1022.0 mb 0.00 in0.0 mm 0.00 in/hr0.0 mm/hr 0.00 in0.0 mm
06:39 PM 68.7°F20.4°C 50.4°F10.2°C 52% Calm Calm -- 30.15 in1021.0 mb 0.00 in0.0 mm 0.00 in/hr0.0 mm/hr 0.00 in0.0 mm
06:44 PM 68.7°F20.4°C 50.4°F10.2°C 52% Calm Calm -- 30.15 in1021.0 mb 0.00 in0.0 mm 0.00 in/hr0.0 mm/hr 0.00 in0.0 mm
06:50 PM 68.5°F20.3°C 49.7°F9.8°C 51% Calm Calm -- 30.15 in1021.0 mb 0.00 in0.0 mm 0.00 in/hr0.0 mm/hr 0.00 in0.0 mm
06:54 PM 68.5°F20.3°C 49.7°F9.8°C 51% Calm Calm -- 30.18 in1022.0 mb 0.00 in0.0 mm 0.00 in/hr0.0 mm/hr 0.00 in0.0 mm
07:00 PM 68.5°F20.3°C 49.7°F9.8°C 51% Calm Calm 4.3 mph6.9 kmh 30.18 in1022.0 mb 0.00 in0.0 mm 0.00 in/hr0.0 mm/hr 0.00 in0.0 mm
07:05 PM 68.5°F20.3°C 49.7°F9.8°C 51% Calm Calm -- 30.18 in1022.0 mb 0.00 in0.0 mm 0.00 in/hr0.0 mm/hr 0.00 in0.0 mm
07:10 PM 68.4°F20.2°C 49.6°F9.8°C 51% Calm Calm -- 30.18 in1022.0 mb 0.00 in0.0 mm 0.00 in/hr0.0 mm/hr 0.00 in0.0 mm
07:14 PM 68.4°F20.2°C 49.6°F9.8°C 51% Calm Calm -- 30.18 in1022.0 mb 0.00 in0.0 mm 0.00 in/hr0.0 mm/hr 0.00 in0.0 mm
07:19 PM 68.4°F20.2°C 50.1°F10.1°C 52% Calm Calm -- 30.18 in1022.0 mb 0.00 in0.0 mm 0.00 in/hr0.0 mm/hr 0.00 in0.0 mm
07:23 PM 68.4°F20.2°C 50.1°F10.1°C 52% Calm Calm -- 30.18 in1022.0 mb 0.00 in0.0 mm 0.00 in/hr0.0 mm/hr 0.00 in0.0 mm
07:29 PM 68.2°F20.1°C 49.4°F9.7°C 51% Calm Calm -- 30.18 in1022.0 mb 0.00 in0.0 mm 0.00 in/hr0.0 mm/hr 0.00 in0.0 mm
07:34 PM 68.2°F20.1°C 49.4°F9.7°C 51% Calm Calm -- 30.18 in1022.0 mb 0.00 in0.0 mm 0.00 in/hr0.0 mm/hr 0.00 in0.0 mm
07:39 PM 68.2°F20.1°C 49.9°F9.9°C 52% Calm Calm -- 30.18 in1022.0 mb 0.00 in0.0 mm 0.00 in/hr0.0 mm/hr 0.00 in0.0 mm
07:44 PM 68.2°F20.1°C 49.9°F9.9°C 52% Calm Calm -- 30.18 in1022.0 mb 0.00 in0.0 mm 0.00 in/hr0.0 mm/hr 0.00 in0.0 mm
07:49 PM 68.2°F20.1°C 49.9°F9.9°C 52% Calm Calm -- 30.18 in1022.0 mb 0.00 in0.0 mm 0.00 in/hr0.0 mm/hr 0.00 in0.0 mm
07:55 PM 68.2°F20.1°C 49.9°F9.9°C 52% Calm Calm -- 30.18 in1022.0 mb 0.00 in0.0 mm 0.00 in/hr0.0 mm/hr 0.00 in0.0 mm
08:00 PM 68.4°F20.2°C 50.1°F10.1°C 52% Calm Calm -- 30.18 in1022.0 mb 0.00 in0.0 mm 0.00 in/hr0.0 mm/hr 0.00 in0.0 mm
08:05 PM 68.4°F20.2°C 50.1°F10.1°C 52% Calm Calm -- 30.18 in1022.0 mb 0.00 in0.0 mm 0.00 in/hr0.0 mm/hr 0.00 in0.0 mm
08:10 PM 68.4°F20.2°C 50.1°F10.1°C 52% Calm Calm -- 30.18 in1022.0 mb 0.00 in0.0 mm 0.00 in/hr0.0 mm/hr 0.00 in0.0 mm
08:14 PM 68.4°F20.2°C 50.6°F10.3°C 53% 6.7 mph NNE10.8 kmh NNE 10.6 mph17.1 kmh 30.18 in1022.0 mb 0.00 in0.0 mm 0.00 in/hr0.0 mm/hr 0.00 in0.0 mm
08:19 PM 68.5°F20.3°C 50.8°F10.4°C 53% 6.7 mph NNE10.8 kmh NNE 7.2 mph11.6 kmh 30.18 in1022.0 mb 0.00 in0.0 mm 0.00 in/hr0.0 mm/hr 0.00 in0.0 mm
08:24 PM 68.5°F20.3°C 51.3°F10.7°C 54% 5.9 mph NNE9.5 kmh NNE 7.7 mph12.4 kmh 30.18 in1022.0 mb 0.00 in0.0 mm 0.00 in/hr0.0 mm/hr 0.00 in0.0 mm
08:29 PM 68.4°F20.2°C 51.1°F10.6°C 54% 3.9 mph NNE6.3 kmh NNE 5.1 mph8.2 kmh 30.18 in1022.0 mb 0.00 in0.0 mm 0.00 in/hr0.0 mm/hr 0.00 in0.0 mm
08:34 PM 68.4°F20.2°C 51.6°F10.9°C 55% 10.6 mph NE17.1 kmh NE 11.5 mph18.5 kmh 30.18 in1022.0 mb 0.00 in0.0 mm 0.00 in/hr0.0 mm/hr 0.00 in0.0 mm
08:39 PM 68.4°F20.2°C 52.1°F11.2°C 56% 9.4 mph NNE15.1 kmh NNE 10.2 mph16.4 kmh 30.18 in1022.0 mb 0.00 in0.0 mm 0.00 in/hr0.0 mm/hr 0.00 in0.0 mm
08:44 PM 68.2°F20.1°C 51.9°F11.1°C 56% 5.1 mph 8.2 kmh 7.2 mph11.6 kmh 30.18 in1022.0 mb 0.00 in0.0 mm 0.00 in/hr0.0 mm/hr 0.00 in0.0 mm
08:49 PM 68.2°F20.1°C 51.9°F11.1°C 56% 2.7 mph NNW4.3 kmh NNW 10.6 mph17.1 kmh 30.18 in1022.0 mb 0.00 in0.0 mm 0.00 in/hr0.0 mm/hr 0.00 in0.0 mm
08:55 PM 68.2°F20.1°C 52.4°F11.3°C 57% 5.9 mph NNE9.5 kmh NNE 7.7 mph12.4 kmh 30.18 in1022.0 mb 0.00 in0.0 mm 0.00 in/hr0.0 mm/hr 0.00 in0.0 mm
09:00 PM 68.0°F20.0°C 52.7°F11.5°C 58% 9.8 mph 15.8 kmh 11.5 mph18.5 kmh 30.18 in1022.0 mb 0.00 in0.0 mm 0.00 in/hr0.0 mm/hr 0.00 in0.0 mm
09:05 PM 67.8°F19.9°C 53.0°F11.7°C 59% 14.9 mph NNE24.0 kmh NNE 16.2 mph26.1 kmh 30.18 in1022.0 mb 0.00 in0.0 mm 0.00 in/hr0.0 mm/hr 0.00 in0.0 mm
09:10 PM 67.6°F19.8°C 53.7°F12.1°C 61% 5.9 mph NNW9.5 kmh NNW 10.2 mph16.4 kmh 30.21 in1023.0 mb 0.00 in0.0 mm 0.00 in/hr0.0 mm/hr 0.00 in0.0 mm
09:15 PM 67.5°F19.7°C 53.6°F12.0°C 61% 3.5 mph NNW5.6 kmh NNW 3.8 mph6.1 kmh 30.21 in1023.0 mb 0.00 in0.0 mm 0.00 in/hr0.0 mm/hr 0.00 in0.0 mm
09:19 PM 67.5°F19.7°C 54.0°F12.2°C 62% 6.3 mph NNE10.1 kmh NNE 6.8 mph10.9 kmh 30.21 in1023.0 mb 0.00 in0.0 mm 0.00 in/hr0.0 mm/hr 0.00 in0.0 mm
09:24 PM 67.5°F19.7°C 54.0°F12.2°C 62% 8.2 mph 13.2 kmh 9.4 mph15.1 kmh 30.21 in1023.0 mb 0.00 in0.0 mm 0.00 in/hr0.0 mm/hr 0.00 in0.0 mm
09:29 PM 67.5°F19.7°C 54.0°F12.2°C 62% 3.5 mph WNW5.6 kmh WNW 3.8 mph6.1 kmh 30.21 in1023.0 mb 0.00 in0.0 mm 0.00 in/hr0.0 mm/hr 0.00 in0.0 mm
09:34 PM 67.3°F19.6°C 54.3°F12.4°C 63% 8.2 mph NNE13.2 kmh NNE 8.9 mph14.3 kmh 30.21 in1023.0 mb 0.00 in0.0 mm 0.00 in/hr0.0 mm/hr 0.00 in0.0 mm
09:39 PM 67.3°F19.6°C 54.3°F12.4°C 63% 5.5 mph NE8.9 kmh NE 7.7 mph12.4 kmh 30.21 in1023.0 mb 0.00 in0.0 mm 0.00 in/hr0.0 mm/hr 0.00 in0.0 mm
09:44 PM 67.3°F19.6°C 54.3°F12.4°C 63% 2.7 mph 4.3 kmh 7.7 mph12.4 kmh 30.21 in1023.0 mb 0.00 in0.0 mm 0.00 in/hr0.0 mm/hr 0.00 in0.0 mm
09:49 PM 67.3°F19.6°C 54.3°F12.4°C 63% 2.0 mph 3.2 kmh 2.1 mph3.4 kmh 30.21 in1023.0 mb 0.00 in0.0 mm 0.00 in/hr0.0 mm/hr 0.00 in0.0 mm
09:55 PM 67.3°F19.6°C 54.3°F12.4°C 63% 9.4 mph NNE15.1 kmh NNE 10.2 mph16.4 kmh 30.21 in1023.0 mb 0.00 in0.0 mm 0.00 in/hr0.0 mm/hr 0.00 in0.0 mm
10:00 PM 67.1°F19.5°C 54.1°F12.3°C 63% 3.9 mph W6.3 kmh W 6.4 mph10.3 kmh 30.21 in1023.0 mb 0.00 in0.0 mm 0.00 in/hr0.0 mm/hr 0.00 in0.0 mm
10:05 PM 67.1°F19.5°C 54.1°F12.3°C 63% 4.3 mph NNE6.9 kmh NNE 5.1 mph8.2 kmh 30.21 in1023.0 mb 0.00 in0.0 mm 0.00 in/hr0.0 mm/hr 0.00 in0.0 mm
10:10 PM 66.9°F19.4°C 53.9°F12.2°C 63% 5.9 mph NNE9.5 kmh NNE 6.4 mph10.3 kmh 30.21 in1023.0 mb 0.00 in0.0 mm 0.00 in/hr0.0 mm/hr 0.00 in0.0 mm
10:15 PM 66.9°F19.4°C 53.9°F12.2°C 63% 5.5 mph NNE8.9 kmh NNE 9.4 mph15.1 kmh 30.21 in1023.0 mb 0.00 in0.0 mm 0.00 in/hr0.0 mm/hr 0.00 in0.0 mm
10:19 PM 66.9°F19.4°C 53.9°F12.2°C 63% 7.4 mph NNE11.9 kmh NNE 8.1 mph13.0 kmh 30.21 in1023.0 mb 0.00 in0.0 mm 0.00 in/hr0.0 mm/hr 0.00 in0.0 mm
10:24 PM 66.7°F19.3°C 53.8°F12.1°C 63% 5.1 mph NNE8.2 kmh NNE 5.5 mph8.9 kmh 30.21 in1023.0 mb 0.00 in0.0 mm 0.00 in/hr0.0 mm/hr 0.00 in0.0 mm
10:28 PM 66.7°F19.3°C 53.8°F12.1°C 63% 7.0 mph NNE11.3 kmh NNE 7.7 mph12.4 kmh 30.21 in1023.0 mb 0.00 in0.0 mm 0.00 in/hr0.0 mm/hr 0.00 in0.0 mm
10:34 PM 66.7°F19.3°C 53.8°F12.1°C 63% 2.0 mph NNE3.2 kmh NNE 4.7 mph7.6 kmh 30.21 in1023.0 mb 0.00 in0.0 mm 0.00 in/hr0.0 mm/hr 0.00 in0.0 mm
10:39 PM 66.6°F19.2°C 53.6°F12.0°C 63% 3.9 mph NNE6.3 kmh NNE 4.3 mph6.9 kmh 30.21 in1023.0 mb 0.00 in0.0 mm 0.00 in/hr0.0 mm/hr 0.00 in0.0 mm
10:44 PM 66.4°F19.1°C 53.4°F11.9°C 63% 1.6 mph NNE2.6 kmh NNE 3.0 mph4.8 kmh 30.21 in1023.0 mb 0.00 in0.0 mm 0.00 in/hr0.0 mm/hr 0.00 in0.0 mm
10:49 PM 66.4°F19.1°C 53.4°F11.9°C 63% 3.5 mph NNE5.6 kmh NNE 3.8 mph6.1 kmh 30.21 in1023.0 mb 0.00 in0.0 mm 0.00 in/hr0.0 mm/hr 0.00 in0.0 mm
10:55 PM 66.2°F19.0°C 53.3°F11.8°C 63% 10.2 mph NNE16.4 kmh NNE 11.1 mph17.9 kmh 30.21 in1023.0 mb 0.00 in0.0 mm 0.00 in/hr0.0 mm/hr 0.00 in0.0 mm
11:00 PM 66.2°F19.0°C 53.3°F11.8°C 63% 1.6 mph NNE2.6 kmh NNE 5.5 mph8.9 kmh 30.21 in1023.0 mb 0.00 in0.0 mm 0.00 in/hr0.0 mm/hr 0.00 in0.0 mm
11:05 PM 66.2°F19.0°C 53.3°F11.8°C 63% 2.3 mph NNE3.7 kmh NNE 2.6 mph4.2 kmh 30.21 in1023.0 mb 0.00 in0.0 mm 0.00 in/hr0.0 mm/hr 0.00 in0.0 mm
11:09 PM 66.2°F19.0°C 53.3°F11.8°C 63% 4.7 mph NE7.6 kmh NE 6.8 mph10.9 kmh 30.21 in1023.0 mb 0.00 in0.0 mm 0.00 in/hr0.0 mm/hr 0.00 in0.0 mm
11:15 PM 66.2°F19.0°C 53.3°F11.8°C 63% 4.3 mph NNE6.9 kmh NNE 4.7 mph7.6 kmh 30.21 in1023.0 mb 0.00 in0.0 mm 0.00 in/hr0.0 mm/hr 0.00 in0.0 mm
11:19 PM 66.0°F18.9°C 53.1°F11.7°C 63% Calm Calm -- 30.21 in1023.0 mb 0.00 in0.0 mm 0.00 in/hr0.0 mm/hr 0.00 in0.0 mm
11:24 PM 66.0°F18.9°C 53.1°F11.7°C 63% Calm Calm 6.8 mph10.9 kmh 30.21 in1023.0 mb 0.00 in0.0 mm 0.00 in/hr0.0 mm/hr 0.00 in0.0 mm
11:29 PM 66.0°F18.9°C 53.1°F11.7°C 63% 4.7 mph NNE7.6 kmh NNE 5.1 mph8.2 kmh 30.21 in1023.0 mb 0.00 in0.0 mm 0.00 in/hr0.0 mm/hr 0.00 in0.0 mm
11:34 PM 66.0°F18.9°C 53.1°F11.7°C 63% 3.5 mph NNE5.6 kmh NNE 5.1 mph8.2 kmh 30.21 in1023.0 mb 0.00 in0.0 mm 0.00 in/hr0.0 mm/hr 0.00 in0.0 mm
11:39 PM 65.8°F18.8°C 52.9°F11.6°C 63% Calm Calm 4.7 mph7.6 kmh 30.21 in1023.0 mb 0.00 in0.0 mm 0.00 in/hr0.0 mm/hr 0.00 in0.0 mm
11:44 PM 65.8°F18.8°C 52.9°F11.6°C 63% Calm Calm -- 30.21 in1023.0 mb 0.00 in0.0 mm 0.00 in/hr0.0 mm/hr 0.00 in0.0 mm
11:49 PM 65.8°F18.8°C 52.9°F11.6°C 63% Calm Calm -- 30.21 in1023.0 mb 0.00 in0.0 mm 0.00 in/hr0.0 mm/hr 0.00 in0.0 mm
11:55 PM 65.7°F18.7°C 52.7°F11.5°C 63% Calm Calm -- 30.18 in1022.0 mb 0.00 in0.0 mm 0.00 in/hr0.0 mm/hr 0.00 in0.0 mm